Time;durP1;ratioP1;P1;durP2;ratioP2;P2;SDS_P1;SDS_P2;PMS_P1;PMS_P2;Temp;Humidity;BMP_temperature;BMP_pressure;BME280_temperature;BME280_humidity;BME280_pressure;Samples;Min_cycle;Max_cycle;Signal;HPM_P1;HPM_P2
2023/08/10 00:01:35;;;;;;;5.13;2.00;;;16.20;99.90;;;;;;4978290;28;20038;-72
2023/08/10 00:04:21;;;;;;;5.22;2.35;;;16.20;99.90;;;;;;5014003;28;20076;-72
2023/08/10 00:07:06;;;;;;;6.57;2.63;;;16.20;99.90;;;;;;5000549;28;20042;-72
2023/08/10 00:09:52;;;;;;;3.83;1.88;;;16.20;99.90;;;;;;5000315;28;20062;-72
2023/08/10 00:12:38;;;;;;;6.95;2.05;;;16.00;99.90;;;;;;4999032;28;20065;-72
2023/08/10 00:15:24;;;;;;;7.00;1.80;;;16.00;99.90;;;;;;4998222;28;20048;-72
2023/08/10 00:18:19;;;;;;;5.57;2.10;;;16.00;99.90;;;;;;4999471;28;20048;-72
2023/08/10 00:21:05;;;;;;;5.15;1.98;;;16.00;99.90;;;;;;4982939;28;20034;-70
2023/08/10 00:23:51;;;;;;;4.47;1.90;;;15.90;99.90;;;;;;4976896;28;20164;-70
2023/08/10 00:26:38;;;;;;;6.18;1.90;;;15.90;99.90;;;;;;4996150;28;20100;-70
2023/08/10 00:29:24;;;;;;;4.55;2.08;;;15.80;99.90;;;;;;4992435;28;20507;-70
2023/08/10 00:32:09;;;;;;;8.82;1.80;;;15.80;99.90;;;;;;5010684;28;20630;-70
2023/08/10 00:34:55;;;;;;;7.68;2.33;;;15.80;99.90;;;;;;4997431;28;20037;-70
2023/08/10 00:37:41;;;;;;;5.57;2.25;;;15.70;99.90;;;;;;5000781;28;20046;-69
2023/08/10 00:40:27;;;;;;;4.90;2.42;;;15.70;99.90;;;;;;4979199;28;20045;-70
2023/08/10 00:43:14;;;;;;;6.85;2.40;;;15.60;99.90;;;;;;4970632;28;20041;-70
2023/08/10 00:46:00;;;;;;;7.22;2.20;;;15.50;99.90;;;;;;4998193;28;20048;-70
2023/08/10 00:48:47;;;;;;;4.70;2.20;;;15.50;99.90;;;;;;4997945;28;20125;-70
2023/08/10 00:51:33;;;;;;;5.00;2.33;;;15.50;99.90;;;;;;4986342;28;20037;-70
2023/08/10 00:54:19;;;;;;;6.15;2.30;;;15.50;99.90;;;;;;4997857;28;20071;-70
2023/08/10 00:57:05;;;;;;;5.93;2.20;;;15.50;99.90;;;;;;4985501;28;20050;-70
2023/08/10 00:59:51;;;;;;;7.03;2.15;;;15.50;99.90;;;;;;4974800;28;20053;-70
2023/08/10 01:02:39;;;;;;;7.47;2.10;;;15.50;99.90;;;;;;5000410;28;20045;-70
2023/08/10 01:05:25;;;;;;;5.72;2.25;;;15.40;99.90;;;;;;4965349;28;20527;-70
2023/08/10 01:08:12;;;;;;;8.80;2.80;;;15.40;99.90;;;;;;4971663;28;20046;-70
2023/08/10 01:11:08;;;;;;;4.78;2.05;;;15.40;99.90;;;;;;4995353;28;20069;-70
2023/08/10 01:14:18;;;;;;;4.78;2.15;;;15.40;99.90;;;;;;4983881;28;20038;-70
2023/08/10 01:17:04;;;;;;;7.88;2.10;;;15.30;99.90;;;;;;4970084;28;20042;-70
2023/08/10 01:19:50;;;;;;;4.40;2.03;;;15.30;99.90;;;;;;4981959;28;20046;-70
2023/08/10 01:22:48;;;;;;;4.35;2.22;;;15.30;99.90;;;;;;4970191;28;20084;-70
2023/08/10 01:25:34;;;;;;;4.65;1.83;;;15.30;99.90;;;;;;4993691;28;20219;-70
2023/08/10 01:28:20;;;;;;;6.88;2.45;;;15.20;99.90;;;;;;4977573;28;20042;-70
2023/08/10 01:31:07;;;;;;;6.60;2.25;;;15.20;99.90;;;;;;4970595;28;20037;-70
2023/08/10 01:33:53;;;;;;;3.83;1.85;;;15.20;99.90;;;;;;4987569;28;20054;-70
2023/08/10 01:36:39;;;;;;;5.28;2.65;;;15.10;99.90;;;;;;4983378;28;20049;-70
2023/08/10 01:39:25;;;;;;;4.68;2.10;;;15.20;99.90;;;;;;4985007;28;20442;-70
2023/08/10 01:42:11;;;;;;;6.72;2.10;;;15.20;99.90;;;;;;4988497;28;20855;-70
2023/08/10 01:44:57;;;;;;;7.60;1.90;;;15.10;99.90;;;;;;4977113;28;20049;-70
2023/08/10 01:48:01;;;;;;;5.30;2.25;;;15.10;99.90;;;;;;4991114;28;20422;-70
2023/08/10 01:50:49;;;;;;;6.65;2.33;;;15.00;99.90;;;;;;4976134;28;20576;-70
2023/08/10 01:53:35;;;;;;;6.47;2.38;;;15.00;99.90;;;;;;4977588;28;20100;-70
2023/08/10 01:56:21;;;;;;;8.68;2.30;;;15.00;99.90;;;;;;4982088;28;20042;-70
2023/08/10 01:59:07;;;;;;;4.63;2.33;;;15.00;99.90;;;;;;4973000;28;20401;-70
2023/08/10 02:01:53;;;;;;;7.47;2.00;;;14.90;99.90;;;;;;4974713;28;20160;-70
2023/08/10 02:04:39;;;;;;;3.60;2.20;;;14.90;99.90;;;;;;4972928;28;20747;-70
2023/08/10 02:07:25;;;;;;;5.88;2.10;;;14.80;99.90;;;;;;4984506;28;20082;-70
2023/08/10 02:10:11;;;;;;;7.07;2.30;;;14.80;99.90;;;;;;4978973;28;20041;-70
2023/08/10 02:12:57;;;;;;;5.97;2.20;;;14.80;99.90;;;;;;4972114;28;20569;-70
2023/08/10 02:15:43;;;;;;;6.78;2.13;;;14.70;99.90;;;;;;4997952;28;20169;-70
2023/08/10 02:18:29;;;;;;;6.15;2.10;;;14.70;99.90;;;;;;4980361;28;20044;-70
2023/08/10 02:21:15;;;;;;;4.95;2.42;;;14.70;99.90;;;;;;4983321;28;20049;-70
2023/08/10 02:24:00;;;;;;;5.80;2.30;;;14.60;99.90;;;;;;4968955;28;20141;-70
2023/08/10 02:26:46;;;;;;;4.20;1.98;;;14.70;99.90;;;;;;5008642;28;20135;-70
2023/08/10 02:29:32;;;;;;;7.35;3.00;;;14.60;99.90;;;;;;4980152;28;20068;-69
2023/08/10 02:32:18;;;;;;;4.53;2.30;;;14.60;99.90;;;;;;4982647;28;20054;-70
2023/08/10 02:35:05;;;;;;;7.28;3.65;;;14.60;99.90;;;;;;4997470;28;20057;-70
2023/08/10 02:37:51;;;;;;;8.25;2.30;;;14.50;99.90;;;;;;4994761;28;20052;-70
2023/08/10 02:40:37;;;;;;;9.77;2.15;;;14.50;99.90;;;;;;4991150;28;20680;-70
2023/08/10 02:43:23;;;;;;;6.55;2.20;;;14.40;99.90;;;;;;4993929;28;20104;-70
2023/08/10 02:46:09;;;;;;;6.97;2.60;;;14.40;99.90;;;;;;4995386;28;20045;-70
2023/08/10 02:48:55;;;;;;;6.07;3.13;;;14.40;99.90;;;;;;4993638;28;20050;-70
2023/08/10 02:51:41;;;;;;;5.90;2.42;;;14.40;99.90;;;;;;4991016;28;20034;-70
2023/08/10 02:54:27;;;;;;;5.07;2.40;;;14.40;99.90;;;;;;4978322;28;20057;-70
2023/08/10 02:57:14;;;;;;;7.22;2.22;;;14.50;99.90;;;;;;5013287;28;20115;-70
2023/08/10 03:00:00;;;;;;;3.83;2.05;;;14.50;99.90;;;;;;4979046;28;20877;-70
2023/08/10 03:02:50;;;;;;;5.22;1.98;;;14.50;99.90;;;;;;4982280;28;20141;-70
2023/08/10 03:05:35;;;;;;;3.78;2.33;;;14.50;99.90;;;;;;4968284;28;20038;-70
2023/08/10 03:08:21;;;;;;;5.47;2.50;;;14.60;99.90;;;;;;4987140;28;20052;-70
2023/08/10 03:11:07;;;;;;;3.78;2.00;;;14.60;99.90;;;;;;4998381;28;20125;-70
2023/08/10 03:13:53;;;;;;;7.20;2.15;;;14.60;99.90;;;;;;4991536;28;20042;-70
2023/08/10 03:16:40;;;;;;;7.03;2.50;;;14.60;99.90;;;;;;4968475;28;20750;-70
2023/08/10 03:19:26;;;;;;;8.77;2.80;;;14.60;99.90;;;;;;4979046;28;20579;-70
2023/08/10 03:22:12;;;;;;;5.53;2.40;;;14.60;99.90;;;;;;4980672;28;20085;-70
2023/08/10 03:24:58;;;;;;;5.88;2.42;;;14.60;99.90;;;;;;4973509;28;20057;-70
2023/08/10 03:27:44;;;;;;;6.05;2.67;;;14.60;99.90;;;;;;4993505;28;20076;-70
2023/08/10 03:30:30;;;;;;;7.03;2.53;;;14.60;99.90;;;;;;4966108;28;20592;-69
2023/08/10 03:33:16;;;;;;;6.88;2.70;;;14.60;99.90;;;;;;4991521;28;20155;-70
2023/08/10 03:36:03;;;;;;;13.43;2.80;;;14.60;99.90;;;;;;5002890;28;20407;-69
2023/08/10 03:38:49;;;;;;;9.02;2.97;;;14.60;99.90;;;;;;4997844;28;20421;-70
2023/08/10 03:41:35;;;;;;;4.95;2.30;;;14.50;99.90;;;;;;4996222;28;20579;-70
2023/08/10 03:44:21;;;;;;;4.75;2.85;;;14.50;99.90;;;;;;4991267;28;20156;-70
2023/08/10 03:47:07;;;;;;;6.03;2.53;;;14.50;99.90;;;;;;4985588;28;20068;-70
2023/08/10 03:49:53;;;;;;;4.38;2.60;;;14.60;99.90;;;;;;5012983;28;20037;-70
2023/08/10 03:52:39;;;;;;;6.93;2.92;;;14.50;99.90;;;;;;4983399;28;20042;-70
2023/08/10 03:55:25;;;;;;;12.73;3.55;;;14.50;99.90;;;;;;5000531;28;20034;-70
2023/08/10 03:58:11;;;;;;;5.22;2.08;;;14.50;99.90;;;;;;4975726;28;20042;-70
2023/08/10 04:00:57;;;;;;;5.95;2.63;;;14.40;99.90;;;;;;4998835;28;20480;-70
2023/08/10 04:03:43;;;;;;;4.35;2.38;;;14.40;99.90;;;;;;4997677;28;20038;-70
2023/08/10 04:06:29;;;;;;;7.95;2.83;;;14.40;99.90;;;;;;4975490;28;20057;-70
2023/08/10 04:09:15;;;;;;;4.13;2.28;;;14.40;99.90;;;;;;4997689;28;20370;-70
2023/08/10 04:12:01;;;;;;;6.43;3.00;;;14.50;99.90;;;;;;4964363;28;20054;-70
2023/08/10 04:14:47;;;;;;;5.60;2.50;;;14.50;99.90;;;;;;4980909;28;20502;-70
2023/08/10 04:17:33;;;;;;;6.32;2.92;;;14.50;99.90;;;;;;4975780;28;20045;-70
2023/08/10 04:20:19;;;;;;;6.55;3.75;;;14.40;99.90;;;;;;4989584;28;20045;-70
2023/08/10 04:23:05;;;;;;;5.35;2.30;;;14.40;99.90;;;;;;4966579;28;20783;-70
2023/08/10 04:25:51;;;;;;;7.55;2.58;;;14.30;99.90;;;;;;4970636;28;20050;-70
2023/08/10 04:28:37;;;;;;;6.95;2.83;;;14.30;99.90;;;;;;4978488;28;20054;-70
2023/08/10 04:31:23;;;;;;;10.23;3.00;;;14.30;99.90;;;;;;4955140;28;20069;-70
2023/08/10 04:34:09;;;;;;;5.50;2.42;;;14.20;99.90;;;;;;4996632;28;20077;-70
2023/08/10 04:36:55;;;;;;;5.93;2.40;;;14.30;99.90;;;;;;4983031;28;20073;-70
2023/08/10 04:39:43;;;;;;;5.38;2.20;;;14.20;99.90;;;;;;5001158;28;20475;-70
2023/08/10 04:42:29;;;;;;;7.05;2.78;;;14.20;99.90;;;;;;4980620;28;20046;-70
2023/08/10 04:45:15;;;;;;;10.45;2.85;;;14.20;99.90;;;;;;4981778;28;20041;-70
2023/08/10 04:48:01;;;;;;;8.02;3.05;;;14.20;99.90;;;;;;4965892;28;20486;-70
2023/08/10 04:50:47;;;;;;;7.20;2.40;;;14.20;99.90;;;;;;4968961;28;20038;-70
2023/08/10 04:53:33;;;;;;;7.00;2.92;;;14.20;99.90;;;;;;4996029;28;20037;-70
2023/08/10 04:56:19;;;;;;;5.18;2.35;;;14.20;99.90;;;;;;4983457;28;20069;-70
2023/08/10 04:59:05;;;;;;;6.63;2.58;;;14.10;99.90;;;;;;4983352;28;20037;-70
2023/08/10 05:01:51;;;;;;;4.30;2.33;;;14.20;99.90;;;;;;4976481;28;20042;-70
2023/08/10 05:04:37;;;;;;;7.07;2.97;;;14.20;99.90;;;;;;4984307;28;20045;-70
2023/08/10 05:07:23;;;;;;;4.88;2.60;;;14.20;99.90;;;;;;4991812;28;20658;-69
2023/08/10 05:10:09;;;;;;;6.80;3.03;;;14.20;99.90;;;;;;4993489;28;20042;-69
2023/08/10 05:12:55;;;;;;;10.98;2.30;;;14.20;99.90;;;;;;4996194;28;20081;-69
2023/08/10 05:15:41;;;;;;;8.13;2.20;;;14.20;99.90;;;;;;4989811;28;20042;-70
2023/08/10 05:18:27;;;;;;;5.65;2.63;;;14.20;99.90;;;;;;4968755;28;20037;-70
2023/08/10 05:21:14;;;;;;;8.98;2.92;;;14.30;99.90;;;;;;4962530;28;20050;-69
2023/08/10 05:23:59;;;;;;;6.20;2.80;;;14.30;99.90;;;;;;4993520;28;20100;-70
2023/08/10 05:26:45;;;;;;;6.07;2.95;;;14.30;99.90;;;;;;4983154;28;20131;-70
2023/08/10 05:29:32;;;;;;;9.25;2.47;;;14.30;99.90;;;;;;4995433;28;20133;-70
2023/08/10 05:32:18;;;;;;;5.97;2.72;;;14.30;99.90;;;;;;4969907;28;20050;-70
2023/08/10 05:35:04;;;;;;;8.18;3.03;;;14.30;99.90;;;;;;4972093;28;20058;-70
2023/08/10 05:37:50;;;;;;;5.82;3.03;;;14.40;99.90;;;;;;4987355;28;20132;-70
2023/08/10 05:40:37;;;;;;;8.68;2.90;;;14.40;99.90;;;;;;4990327;28;20053;-70
2023/08/10 05:43:23;;;;;;;10.32;2.95;;;14.50;99.90;;;;;;4971209;28;20491;-70
2023/08/10 05:46:09;;;;;;;8.52;2.83;;;14.50;99.90;;;;;;4970609;28;20046;-70
2023/08/10 05:48:55;;;;;;;7.07;3.30;;;14.60;99.90;;;;;;4971099;28;20423;-70
2023/08/10 05:51:41;;;;;;;8.90;3.13;;;14.60;99.90;;;;;;4972788;28;20063;-70
2023/08/10 05:54:27;;;;;;;9.00;3.13;;;14.70;99.90;;;;;;4969659;28;20144;-70
2023/08/10 05:57:13;;;;;;;8.90;3.30;;;14.80;99.90;;;;;;4986998;28;20120;-70
2023/08/10 06:00:00;;;;;;;9.80;2.42;;;14.80;99.90;;;;;;4965359;28;20045;-70
2023/08/10 06:02:46;;;;;;;9.10;3.70;;;14.80;99.90;;;;;;4978367;28;20383;-70
2023/08/10 06:05:32;;;;;;;7.55;2.45;;;14.90;99.90;;;;;;4990251;28;20151;-70
2023/08/10 06:08:18;;;;;;;12.75;3.15;;;14.90;99.90;;;;;;4975434;28;20092;-70
2023/08/10 06:11:05;;;;;;;6.90;2.38;;;14.90;99.90;;;;;;4976718;28;20030;-70
2023/08/10 06:13:51;;;;;;;5.72;2.25;;;15.00;99.90;;;;;;4958277;28;20045;-70
2023/08/10 06:16:37;;;;;;;5.45;2.13;;;15.00;99.90;;;;;;4964402;28;20034;-70
2023/08/10 06:19:25;;;;;;;8.32;2.38;;;15.10;99.90;;;;;;4981469;28;20483;-70
2023/08/10 06:22:11;;;;;;;6.20;2.50;;;15.10;99.90;;;;;;4986546;28;20046;-70
2023/08/10 06:24:58;;;;;;;8.85;2.35;;;15.20;99.90;;;;;;4974316;28;20038;-70
2023/08/10 06:27:47;;;;;;;8.70;2.40;;;15.20;99.90;;;;;;4975121;28;20049;-70
2023/08/10 06:30:33;;;;;;;9.05;2.45;;;15.30;99.90;;;;;;4968261;28;20077;-70
2023/08/10 06:33:19;;;;;;;8.38;2.33;;;15.30;99.90;;;;;;4963723;28;20403;-70
2023/08/10 06:36:06;;;;;;;7.72;2.20;;;15.40;99.90;;;;;;4993073;28;20042;-70
2023/08/10 06:38:53;;;;;;;8.20;2.60;;;15.40;99.90;;;;;;4957019;28;20790;-70
2023/08/10 06:41:39;;;;;;;10.85;2.90;;;15.50;99.90;;;;;;4972973;28;20502;-70
2023/08/10 06:44:25;;;;;;;7.38;2.30;;;15.60;99.90;;;;;;4993413;28;20386;-70
2023/08/10 06:47:11;;;;;;;8.70;2.92;;;15.60;99.90;;;;;;4984915;28;20052;-70
2023/08/10 06:49:58;;;;;;;7.03;2.45;;;15.70;99.90;;;;;;4966116;28;20042;-70
2023/08/10 06:52:45;;;;;;;8.73;2.67;;;15.60;99.90;;;;;;4966877;28;20116;-70
2023/08/10 06:55:31;;;;;;;9.13;2.28;;;15.60;99.90;;;;;;4962570;28;20039;-70
2023/08/10 06:58:17;;;;;;;11.15;2.17;;;15.70;99.90;;;;;;4978241;28;20053;-70
2023/08/10 07:01:03;;;;;;;10.63;2.17;;;15.60;99.90;;;;;;4976694;28;20042;-70
2023/08/10 07:03:50;;;;;;;8.23;2.22;;;15.60;99.90;;;;;;4978780;28;20475;-70
2023/08/10 07:06:36;;;;;;;10.27;2.47;;;15.60;99.90;;;;;;4979571;28;20057;-70
2023/08/10 07:09:25;;;;;;;7.45;2.70;;;15.60;99.90;;;;;;4983046;28;20046;-70
2023/08/10 07:12:11;;;;;;;9.10;2.42;;;15.70;99.90;;;;;;4966716;28;20049;-70
2023/08/10 07:14:57;;;;;;;4.95;1.73;;;15.80;99.90;;;;;;4979743;28;20060;-70
2023/08/10 07:17:42;;;;;;;6.40;1.80;;;15.80;99.90;;;;;;4993664;28;20045;-69
2023/08/10 07:20:29;;;;;;;4.85;1.80;;;15.90;99.90;;;;;;4983053;28;20050;-69
2023/08/10 07:23:17;;;;;;;10.30;2.22;;;15.80;99.90;;;;;;4993126;28;20042;-70
2023/08/10 07:26:03;;;;;;;;;;;15.90;99.90;;;;;;4992323;28;20105;-70
2023/08/10 07:28:49;;;;;;;6.95;1.70;;;15.90;99.90;;;;;;4993522;28;19917;-70
2023/08/10 07:31:35;;;;;;;6.20;1.77;;;16.00;99.90;;;;;;4954073;28;20134;-70
2023/08/10 07:34:21;;;;;;;8.68;2.20;;;16.00;99.90;;;;;;4986500;28;20601;-70
2023/08/10 07:37:07;;;;;;;7.55;1.77;;;16.00;99.90;;;;;;4985640;28;20037;-70
2023/08/10 07:39:53;;;;;;;6.05;1.98;;;16.10;99.90;;;;;;4971035;28;20728;-70
2023/08/10 07:42:39;;;;;;;5.75;2.10;;;16.20;99.90;;;;;;4972641;28;20060;-69
2023/08/10 07:45:25;;;;;;;8.02;1.50;;;16.20;99.90;;;;;;4998184;28;20045;-70
2023/08/10 07:48:11;;;;;;;5.50;1.38;;;16.30;99.90;;;;;;4959428;28;20049;-70
2023/08/10 07:50:58;;;;;;;8.23;1.63;;;16.30;99.90;;;;;;4984981;28;20065;-70
2023/08/10 07:53:44;;;;;;;8.68;1.63;;;16.40;99.90;;;;;;4998111;28;20462;-70
2023/08/10 07:56:30;;;;;;;9.43;1.58;;;16.30;99.90;;;;;;4964454;28;20054;-70
2023/08/10 07:59:16;;;;;;;8.70;1.67;;;16.30;99.90;;;;;;4992564;28;20077;-70
2023/08/10 08:02:02;;;;;;;5.10;1.20;;;16.40;99.90;;;;;;5006709;28;20534;-71
2023/08/10 08:04:48;;;;;;;7.72;1.48;;;16.50;99.90;;;;;;4979312;28;20053;-70
2023/08/10 08:07:34;;;;;;;6.32;1.48;;;16.50;99.90;;;;;;4967390;28;20058;-70
2023/08/10 08:10:21;;;;;;;6.25;1.70;;;16.60;99.90;;;;;;4989392;28;20048;-70
2023/08/10 08:13:08;;;;;;;8.35;1.83;;;16.70;99.90;;;;;;4997463;28;20422;-70
2023/08/10 08:15:57;;;;;;;6.18;1.70;;;16.80;99.90;;;;;;4982220;28;20042;-70
2023/08/10 08:18:46;;;;;;;10.15;1.77;;;16.80;99.90;;;;;;4991882;28;20042;-70
2023/08/10 08:21:33;;;;;;;6.75;1.52;;;16.80;99.90;;;;;;5002941;28;20112;-70
2023/08/10 08:24:19;;;;;;;12.15;2.20;;;16.90;99.90;;;;;;4997171;28;20042;-70
2023/08/10 08:27:05;;;;;;;9.32;1.90;;;17.00;99.90;;;;;;4997676;28;20069;-70
2023/08/10 08:29:51;;;;;;;11.07;1.63;;;17.00;99.90;;;;;;4978714;28;20057;-71
2023/08/10 08:32:37;;;;;;;7.40;1.60;;;17.10;99.90;;;;;;4988050;28;20058;-70
2023/08/10 08:35:24;;;;;;;5.80;1.90;;;17.10;99.90;;;;;;4984282;28;20111;-70
2023/08/10 08:38:11;;;;;;;6.50;1.50;;;17.20;99.90;;;;;;4998326;28;20046;-70
2023/08/10 08:40:56;;;;;;;6.85;1.60;;;17.10;99.90;;;;;;4988004;28;20042;-70
2023/08/10 08:43:43;;;;;;;5.13;1.63;;;17.10;99.90;;;;;;4984280;28;20493;-70
2023/08/10 08:46:30;;;;;;;8.40;1.73;;;17.20;99.90;;;;;;4968301;28;20044;-70
2023/08/10 08:49:16;;;;;;;6.00;1.70;;;17.20;99.90;;;;;;5010619;28;20046;-70
2023/08/10 08:52:02;;;;;;;8.45;1.80;;;17.30;99.90;;;;;;4970574;28;20042;-70
2023/08/10 08:54:48;;;;;;;7.55;1.90;;;17.30;99.90;;;;;;4959455;28;20043;-70
2023/08/10 08:57:35;;;;;;;4.55;1.30;;;17.30;99.90;;;;;;4996007;28;20655;-70
2023/08/10 09:00:22;;;;;;;7.07;1.70;;;17.40;99.90;;;;;;5007235;28;20038;-71
2023/08/10 09:03:08;;;;;;;4.07;1.45;;;17.50;99.90;;;;;;4971770;28;20045;-73
2023/08/10 09:05:54;;;;;;;7.90;2.33;;;17.50;99.90;;;;;;4965469;28;20042;-73
2023/08/10 09:08:41;;;;;;;4.35;1.45;;;17.60;99.90;;;;;;4970867;28;20075;-73
2023/08/10 09:11:27;;;;;;;7.25;1.73;;;17.70;99.90;;;;;;4997029;28;20049;-72
2023/08/10 09:14:13;;;;;;;7.50;2.58;;;17.80;99.90;;;;;;4984201;28;20423;-73
2023/08/10 09:17:00;;;;;;;3.72;1.52;;;17.80;99.90;;;;;;5009575;28;20498;-72
2023/08/10 09:19:47;;;;;;;4.90;1.20;;;17.80;99.90;;;;;;4968227;28;20046;-73
2023/08/10 09:22:38;;;;;;;7.37;1.90;;;17.80;99.90;;;;;;4997531;28;20441;-73
2023/08/10 09:25:24;;;;;;;6.75;1.73;;;17.90;99.90;;;;;;4984878;28;20773;-73
2023/08/10 09:28:11;;;;;;;5.30;1.40;;;17.80;99.90;;;;;;4970849;28;20103;-72
2023/08/10 09:30:57;;;;;;;8.95;1.20;;;17.80;99.90;;;;;;4997868;28;20501;-73
2023/08/10 09:33:43;;;;;;;4.30;1.30;;;17.90;99.90;;;;;;4951873;28;20058;-73
2023/08/10 09:36:32;;;;;;;10.48;1.52;;;17.90;99.90;;;;;;4997973;28;20041;-73
2023/08/10 09:39:18;;;;;;;6.43;1.42;;;18.10;99.90;;;;;;4982101;28;20124;-73
2023/08/10 09:42:05;;;;;;;4.18;1.50;;;18.30;99.90;;;;;;4981973;28;20046;-72
2023/08/10 09:44:52;;;;;;;4.30;1.48;;;18.30;99.90;;;;;;4983249;28;20458;-73
2023/08/10 09:47:39;;;;;;;5.25;1.20;;;18.40;99.90;;;;;;4972240;28;20045;-73
2023/08/10 09:50:25;;;;;;;8.17;1.60;;;18.40;99.90;;;;;;4977541;28;20077;-73
2023/08/10 09:53:11;;;;;;;4.75;1.30;;;18.50;99.90;;;;;;4978593;28;20063;-73
2023/08/10 09:55:57;;;;;;;6.75;1.67;;;18.50;99.90;;;;;;4982757;28;20037;-73
2023/08/10 09:58:43;;;;;;;9.10;1.42;;;18.60;99.90;;;;;;4984134;28;20417;-73
2023/08/10 10:01:29;;;;;;;5.95;1.30;;;18.50;99.30;;;;;;4970866;28;20046;-73
2023/08/10 10:04:15;;;;;;;6.63;1.42;;;18.60;98.90;;;;;;4985049;28;20042;-73
2023/08/10 10:07:01;;;;;;;6.63;1.45;;;18.80;99.90;;;;;;4985802;28;20060;-72
2023/08/10 10:09:47;;;;;;;3.35;1.17;;;18.80;99.80;;;;;;4961113;28;20088;-73
2023/08/10 10:12:35;;;;;;;7.45;1.58;;;18.90;98.90;;;;;;4974347;28;20038;-73
2023/08/10 10:15:21;;;;;;;;;;;19.20;97.70;;;;;;4974172;28;20041;-75
2023/08/10 10:18:08;;;;;;;5.30;1.40;;;19.30;97.20;;;;;;4987370;28;19995;-75
2023/08/10 10:20:54;;;;;;;5.38;1.67;;;19.20;96.30;;;;;;4974558;28;20335;-75
2023/08/10 10:23:41;;;;;;;7.10;1.30;;;19.10;96.70;;;;;;4986874;28;20046;-75
2023/08/10 10:26:27;;;;;;;7.13;1.50;;;19.00;97.10;;;;;;4986079;28;20106;-73
2023/08/10 10:29:15;;;;;;;4.63;1.15;;;18.80;97.80;;;;;;5030655;28;20388;-72
2023/08/10 10:32:05;;;;;;;;;;;18.70;98.50;;;;;;4988271;28;20046;-72
2023/08/10 10:34:52;;;;;;;5.50;1.30;;;18.90;98.60;;;;;;4998698;28;20238;-73
2023/08/10 10:37:39;;;;;;;5.10;1.30;;;19.00;97.50;;;;;;4986540;28;20131;-73
2023/08/10 10:40:25;;;;;;;6.05;1.80;;;19.20;98.40;;;;;;4983323;28;20181;-73
2023/08/10 10:43:14;;;;;;;7.50;1.52;;;19.10;97.80;;;;;;4969178;28;20545;-73
2023/08/10 10:46:00;;;;;;;6.40;1.60;;;19.20;97.50;;;;;;4987781;28;20081;-73
2023/08/10 10:48:46;;;;;;;5.47;1.27;;;19.40;95.00;;;;;;5000504;28;20050;-73
2023/08/10 10:51:32;;;;;;;5.00;1.20;;;19.40;94.90;;;;;;4985176;28;20045;-73
2023/08/10 10:54:18;;;;;;;3.20;1.20;;;19.50;94.70;;;;;;4986692;28;20092;-73
2023/08/10 10:57:04;;;;;;;2.60;1.20;;;19.60;94.70;;;;;;4986963;28;20491;-73
2023/08/10 10:59:52;;;;;;;3.25;1.42;;;19.70;95.10;;;;;;4972597;28;20100;-73
2023/08/10 11:02:38;;;;;;;4.10;1.30;;;19.80;94.60;;;;;;4958508;28;20037;-76
2023/08/10 11:05:24;;;;;;;5.72;1.38;;;20.00;95.00;;;;;;4999842;28;20462;-74
2023/08/10 11:08:10;;;;;;;6.22;1.30;;;20.00;94.70;;;;;;4968727;28;20050;-75
2023/08/10 11:10:57;;;;;;;5.22;1.77;;;20.00;95.20;;;;;;4984798;28;20578;-73
2023/08/10 11:13:43;;;;;;;3.63;1.60;;;20.10;94.40;;;;;;4966294;28;20104;-74
2023/08/10 11:16:34;;;;;;;5.18;1.48;;;20.20;94.60;;;;;;4980876;28;20204;-74
2023/08/10 11:19:20;;;;;;;6.32;1.70;;;20.10;94.60;;;;;;4998969;28;20489;-73
2023/08/10 11:22:07;;;;;;;3.72;1.50;;;20.10;93.70;;;;;;4983947;28;20045;-73
2023/08/10 11:24:53;;;;;;;4.95;1.40;;;20.10;93.60;;;;;;4986878;28;20033;-73
2023/08/10 11:27:41;;;;;;;4.25;1.30;;;19.90;93.40;;;;;;4956243;28;20054;-74
2023/08/10 11:30:27;;;;;;;4.95;1.40;;;20.20;94.30;;;;;;4973650;28;20724;-71
2023/08/10 11:33:14;;;;;;;4.15;1.10;;;20.40;93.90;;;;;;4987052;28;20050;-72
2023/08/10 11:36:00;;;;;;;7.05;1.45;;;20.30;92.20;;;;;;4983650;28;20053;-72
2023/08/10 11:38:49;;;;;;;5.72;1.38;;;20.40;92.90;;;;;;4997662;28;20041;-72
2023/08/10 11:41:40;;;;;;;3.83;1.20;;;20.60;92.00;;;;;;4985799;28;20049;-72
2023/08/10 11:44:29;;;;;;;6.35;1.23;;;20.80;92.00;;;;;;4972171;28;20073;-70
2023/08/10 11:47:15;;;;;;;4.85;1.40;;;20.80;92.20;;;;;;4979247;28;20046;-70
2023/08/10 11:50:03;;;;;;;3.45;1.30;;;20.80;92.10;;;;;;4970526;28;20107;-72
2023/08/10 11:52:52;;;;;;;5.00;1.30;;;20.50;93.00;;;;;;4977668;28;20441;-73
2023/08/10 11:55:45;;;;;;;4.57;1.40;;;20.60;93.30;;;;;;4981652;28;20621;-71
2023/08/10 11:58:32;;;;;;;4.47;1.52;;;20.50;93.00;;;;;;4979992;28;20042;-71
2023/08/10 12:01:18;;;;;;;5.13;1.20;;;20.70;93.70;;;;;;4979646;28;20157;-72
2023/08/10 12:04:11;;;;;;;4.68;1.27;;;20.70;91.70;;;;;;4996458;28;20525;-73
2023/08/10 12:06:57;;;;;;;8.15;1.30;;;20.50;92.00;;;;;;4996122;28;20096;-70
2023/08/10 12:09:47;;;;;;;4.70;1.63;;;20.70;92.00;;;;;;4970794;28;20124;-71
2023/08/10 12:12:34;;;;;;;5.28;1.30;;;20.80;91.90;;;;;;5010564;28;20180;-71
2023/08/10 12:15:23;;;;;;;4.90;1.50;;;20.80;92.60;;;;;;4969584;28;20073;-72
2023/08/10 12:18:09;;;;;;;5.57;1.20;;;21.20;91.90;;;;;;4972462;28;20046;-71
2023/08/10 12:20:56;;;;;;;5.32;1.40;;;21.40;92.10;;;;;;4980341;28;20044;-72
2023/08/10 12:23:43;;;;;;;3.67;1.50;;;21.50;92.10;;;;;;4996774;28;20148;-71
2023/08/10 12:26:31;;;;;;;3.33;1.10;;;21.00;91.50;;;;;;4982848;28;20471;-71
2023/08/10 12:29:17;;;;;;;5.55;1.40;;;21.10;92.50;;;;;;4952241;28;20493;-71
2023/08/10 12:32:03;;;;;;;4.28;1.50;;;21.20;92.40;;;;;;4987608;28;20056;-72
2023/08/10 12:34:53;;;;;;;6.97;1.65;;;21.60;92.30;;;;;;4976769;28;20065;-71
2023/08/10 12:37:39;;;;;;;2.75;1.30;;;21.90;92.00;;;;;;4970708;28;20038;-71
2023/08/10 12:40:25;;;;;;;4.43;1.30;;;21.80;91.50;;;;;;4983843;28;20478;-72
2023/08/10 12:43:11;;;;;;;6.65;1.88;;;21.90;91.00;;;;;;4961227;28;20056;-72
2023/08/10 12:45:58;;;;;;;7.82;1.52;;;21.60;90.90;;;;;;4968322;28;20042;-70
2023/08/10 12:48:44;;;;;;;6.13;1.38;;;21.60;90.80;;;;;;4955073;28;20656;-70
2023/08/10 12:51:29;;;;;;;5.63;1.23;;;21.90;91.00;;;;;;5010308;28;20045;-72
2023/08/10 12:54:15;;;;;;;5.80;1.15;;;21.70;90.50;;;;;;4993795;28;20406;-72
2023/08/10 12:57:02;;;;;;;5.10;1.60;;;21.60;92.20;;;;;;4992467;28;20073;-72
2023/08/10 12:59:48;;;;;;;6.70;1.13;;;21.50;91.90;;;;;;4983324;28;20034;-72
2023/08/10 13:02:34;;;;;;;6.82;1.58;;;21.60;91.30;;;;;;4996906;28;20041;-71
2023/08/10 13:05:20;;;;;;;7.38;1.40;;;21.80;91.40;;;;;;4996544;28;20114;-71
2023/08/10 13:08:06;;;;;;;6.80;1.38;;;21.50;90.70;;;;;;4982547;28;20144;-71
2023/08/10 13:10:52;;;;;;;7.32;1.42;;;21.60;91.80;;;;;;4982535;28;20374;-72
2023/08/10 13:13:41;;;;;;;5.93;1.20;;;21.70;91.10;;;;;;4990139;28;20046;-72
2023/08/10 13:16:29;;;;;;;5.28;1.40;;;21.80;91.20;;;;;;4978367;28;20039;-74
2023/08/10 13:19:17;;;;;;;5.07;1.40;;;22.00;89.70;;;;;;4974799;28;20042;-73
2023/08/10 13:22:06;;;;;;;;;;;21.80;87.40;;;;;;4963197;28;20038;-73
2023/08/10 13:24:55;;;;;;;4.55;1.13;;;22.10;88.40;;;;;;4982903;28;19913;-75
2023/08/10 13:27:40;;;;;;;4.50;1.30;;;22.30;88.20;;;;;;5006948;28;20046;-74
2023/08/10 13:30:27;;;;;;;3.35;1.38;;;22.50;88.90;;;;;;4998150;28;20486;-75
2023/08/10 13:33:13;;;;;;;4.53;1.35;;;22.20;86.90;;;;;;4978401;28;20049;-75
2023/08/10 13:36:04;;;;;;;5.32;1.40;;;22.20;87.50;;;;;;4984604;28;20038;-75
2023/08/10 13:38:50;;;;;;;4.28;1.30;;;22.30;88.30;;;;;;4995375;28;20044;-74
2023/08/10 13:41:37;;;;;;;4.35;1.50;;;22.50;86.70;;;;;;4997683;28;20045;-74
2023/08/10 13:44:23;;;;;;;5.30;1.65;;;22.60;87.10;;;;;;5001757;28;20042;-75
2023/08/10 13:47:09;;;;;;;5.75;1.25;;;22.70;86.30;;;;;;4994430;28;20482;-75
2023/08/10 13:49:55;;;;;;;3.38;1.10;;;22.80;87.10;;;;;;4964166;28;20041;-75
2023/08/10 13:52:40;;;;;;;4.35;1.20;;;22.80;88.10;;;;;;4969008;28;20046;-75
2023/08/10 13:55:26;;;;;;;6.38;1.60;;;22.70;87.60;;;;;;4982741;28;20073;-75
2023/08/10 13:58:13;;;;;;;7.55;1.42;;;22.90;87.10;;;;;;4978715;28;20505;-75
2023/08/10 14:00:59;;;;;;;2.80;1.08;;;22.70;85.50;;;;;;4991146;28;20056;-75
2023/08/10 14:03:45;;;;;;;4.90;1.80;;;22.70;85.80;;;;;;4963895;28;20479;-74
2023/08/10 14:06:30;;;;;;;4.60;1.30;;;23.30;85.40;;;;;;4996309;28;20054;-74
2023/08/10 14:09:17;;;;;;;5.03;1.38;;;23.40;82.90;;;;;;4993716;28;20116;-74
2023/08/10 14:12:03;;;;;;;6.00;1.55;;;23.40;82.10;;;;;;4995714;28;20045;-74
2023/08/10 14:14:49;;;;;;;6.30;1.40;;;23.80;82.90;;;;;;4982097;28;20044;-73
2023/08/10 14:17:35;;;;;;;7.10;1.38;;;24.00;81.80;;;;;;4970629;28;20042;-74
2023/08/10 14:20:22;;;;;;;4.95;1.10;;;24.20;80.00;;;;;;4982823;28;20042;-74
2023/08/10 14:23:08;;;;;;;7.10;2.13;;;24.40;78.90;;;;;;4976333;28;20108;-74
2023/08/10 14:25:54;;;;;;;5.43;1.60;;;24.50;81.20;;;;;;4986647;28;20097;-74
2023/08/10 14:28:40;;;;;;;4.28;1.20;;;23.90;79.70;;;;;;4980655;28;20049;-73